Alamo, Nevada
Current Conditions -  °F | °C
As of 8:18 PM on Saturday 20 Dec 2014 (Local Time) from KINS Reporting Station
Scattered Clouds Scattered Clouds  
Wind Chill: 37°   Ceiling: Unl
Heat Index: 41°   Visibility: 10mi
Dew Point: 37°   Wind: 6mph
Humidity: 87%   Direction: 270°W
Pressure: 30.16"   Gusts: NA
Location:  37.36°N, 115.16°W
Report Text: KINS 210418Z AUTO 27005KT 10SM SCT080 05/03 A3016 RMK AO2
Loading
Personal Weather Stations






























Interactive Weather Map New forecast layout! Learn more

10-Day Weather Forecast

Advertisements
Track Severe Weather on mobile